sensor_id;sensor_type;location;lat;lon;timestamp;pressure;altitude;pressure_sealevel;temperature;humidity
43147;BME280;28752;48.266;7.402;2023-03-14T00:01:31;97863.66;;;12.45;90.88
43147;BME280;28752;48.266;7.402;2023-03-14T00:03:56;97868.97;;;12.17;93.52
43147;BME280;28752;48.266;7.402;2023-03-14T00:06:22;97882.66;;;12.20;93.55
43147;BME280;28752;48.266;7.402;2023-03-14T00:08:48;97885.31;;;12.20;93.86
43147;BME280;28752;48.266;7.402;2023-03-14T00:11:16;97881.13;;;12.74;90.20
43147;BME280;28752;48.266;7.402;2023-03-14T00:13:42;97896.91;;;12.41;92.01
43147;BME280;28752;48.266;7.402;2023-03-14T00:16:12;97908.34;;;12.13;92.91
43147;BME280;28752;48.266;7.402;2023-03-14T00:18:38;97900.03;;;12.23;92.35
43147;BME280;28752;48.266;7.402;2023-03-14T00:21:06;97904.16;;;12.25;92.43
43147;BME280;28752;48.266;7.402;2023-03-14T00:23:33;97909.59;;;12.17;92.09
43147;BME280;28752;48.266;7.402;2023-03-14T00:26:00;97901.09;;;12.29;92.07
43147;BME280;28752;48.266;7.402;2023-03-14T00:28:25;97912.69;;;12.21;92.29
43147;BME280;28752;48.266;7.402;2023-03-14T00:30:51;97910.03;;;12.21;92.69
43147;BME280;28752;48.266;7.402;2023-03-14T00:33:16;97914.19;;;12.30;92.43
43147;BME280;28752;48.266;7.402;2023-03-14T00:35:41;97899.84;;;12.24;93.50
43147;BME280;28752;48.266;7.402;2023-03-14T00:38:07;97901.34;;;12.05;93.94
43147;BME280;28752;48.266;7.402;2023-03-14T00:40:32;97896.81;;;12.27;92.87
43147;BME280;28752;48.266;7.402;2023-03-14T00:42:57;97896.72;;;12.14;93.69
43147;BME280;28752;48.266;7.402;2023-03-14T00:45:23;97893.19;;;12.07;93.84
43147;BME280;28752;48.266;7.402;2023-03-14T00:47:48;97878.88;;;12.01;94.32
43147;BME280;28752;48.266;7.402;2023-03-14T00:50:13;97885.81;;;12.02;93.39
43147;BME280;28752;48.266;7.402;2023-03-14T00:52:39;97869.53;;;11.84;93.67
43147;BME280;28752;48.266;7.402;2023-03-14T00:55:05;97880.84;;;11.93;93.44
43147;BME280;28752;48.266;7.402;2023-03-14T00:57:30;97878.75;;;11.88;92.98
43147;BME280;28752;48.266;7.402;2023-03-14T00:59:55;97875.09;;;11.89;92.76
43147;BME280;28752;48.266;7.402;2023-03-14T01:02:21;97890.16;;;11.88;92.97
43147;BME280;28752;48.266;7.402;2023-03-14T01:04:49;97895.03;;;11.85;93.06
43147;BME280;28752;48.266;7.402;2023-03-14T01:07:15;97877.28;;;11.85;92.68
43147;BME280;28752;48.266;7.402;2023-03-14T01:09:40;97867.72;;;11.84;92.22
43147;BME280;28752;48.266;7.402;2023-03-14T01:12:06;97856.84;;;11.79;92.46
43147;BME280;28752;48.266;7.402;2023-03-14T01:14:31;97842.00;;;11.85;91.78
43147;BME280;28752;48.266;7.402;2023-03-14T01:16:56;97841.50;;;11.74;91.78
43147;BME280;28752;48.266;7.402;2023-03-14T01:19:26;97850.28;;;11.75;91.70
43147;BME280;28752;48.266;7.402;2023-03-14T01:21:52;97849.16;;;11.63;91.94
43147;BME280;28752;48.266;7.402;2023-03-14T01:24:17;97862.88;;;11.66;92.16
43147;BME280;28752;48.266;7.402;2023-03-14T01:26:43;97851.81;;;11.63;92.01
43147;BME280;28752;48.266;7.402;2023-03-14T01:29:08;97859.00;;;11.69;91.18
43147;BME280;28752;48.266;7.402;2023-03-14T01:31:33;97855.31;;;11.63;90.75
43147;BME280;28752;48.266;7.402;2023-03-14T01:33:59;97852.94;;;11.97;88.96
43147;BME280;28752;48.266;7.402;2023-03-14T01:36:24;97851.81;;;11.63;91.00
43147;BME280;28752;48.266;7.402;2023-03-14T01:38:49;97850.81;;;11.64;90.40
43147;BME280;28752;48.266;7.402;2023-03-14T01:41:21;97843.63;;;11.58;90.68
43147;BME280;28752;48.266;7.402;2023-03-14T01:43:47;97832.97;;;11.51;90.28
43147;BME280;28752;48.266;7.402;2023-03-14T01:46:23;97839.28;;;11.50;90.44
43147;BME280;28752;48.266;7.402;2023-03-14T01:49:05;97824.63;;;11.54;90.05
43147;BME280;28752;48.266;7.402;2023-03-14T01:51:34;97831.72;;;11.47;90.24
43147;BME280;28752;48.266;7.402;2023-03-14T01:54:07;97839.00;;;11.45;89.84
43147;BME280;28752;48.266;7.402;2023-03-14T01:56:34;97825.41;;;11.48;89.52
43147;BME280;28752;48.266;7.402;2023-03-14T01:59:04;97841.97;;;11.56;88.72
43147;BME280;28752;48.266;7.402;2023-03-14T02:01:31;97837.69;;;11.55;89.44
43147;BME280;28752;48.266;7.402;2023-03-14T02:04:00;97828.09;;;11.54;89.24
43147;BME280;28752;48.266;7.402;2023-03-14T02:06:32;97827.09;;;11.55;89.16
43147;BME280;28752;48.266;7.402;2023-03-14T02:09:00;97806.47;;;11.51;89.42
43147;BME280;28752;48.266;7.402;2023-03-14T02:11:28;97810.13;;;11.50;89.04
43147;BME280;28752;48.266;7.402;2023-03-14T02:13:55;97809.66;;;11.46;89.44
43147;BME280;28752;48.266;7.402;2023-03-14T02:16:21;97805.00;;;11.48;89.25
43147;BME280;28752;48.266;7.402;2023-03-14T02:18:47;97813.84;;;11.55;89.20
43147;BME280;28752;48.266;7.402;2023-03-14T02:24:02;97801.84;;;11.38;89.04
43147;BME280;28752;48.266;7.402;2023-03-14T02:27:06;97813.66;;;11.35;90.03
43147;BME280;28752;48.266;7.402;2023-03-14T02:29:35;97816.03;;;11.52;88.83
43147;BME280;28752;48.266;7.402;2023-03-14T02:32:02;97795.41;;;11.47;88.72
43147;BME280;28752;48.266;7.402;2023-03-14T02:34:27;97788.03;;;11.43;88.75
43147;BME280;28752;48.266;7.402;2023-03-14T02:36:53;97795.19;;;11.42;88.82
43147;BME280;28752;48.266;7.402;2023-03-14T02:39:29;97771.03;;;11.30;89.14
43147;BME280;28752;48.266;7.402;2023-03-14T02:41:57;97775.78;;;11.42;88.85
43147;BME280;28752;48.266;7.402;2023-03-14T02:44:23;97781.44;;;11.32;88.97
43147;BME280;28752;48.266;7.402;2023-03-14T02:46:48;97759.91;;;11.20;88.99
43147;BME280;28752;48.266;7.402;2023-03-14T02:49:14;97748.88;;;11.38;88.23
43147;BME280;28752;48.266;7.402;2023-03-14T02:51:40;97733.34;;;11.35;87.84
43147;BME280;28752;48.266;7.402;2023-03-14T02:54:07;97741.88;;;11.30;87.83
43147;BME280;28752;48.266;7.402;2023-03-14T02:56:33;97740.88;;;11.10;88.66
43147;BME280;28752;48.266;7.402;2023-03-14T02:58:58;97735.28;;;11.19;88.50
43147;BME280;28752;48.266;7.402;2023-03-14T03:01:24;97740.00;;;11.24;88.04
43147;BME280;28752;48.266;7.402;2023-03-14T03:03:50;97731.56;;;11.14;88.17
43147;BME280;28752;48.266;7.402;2023-03-14T03:06:15;97730.09;;;11.11;87.66
43147;BME280;28752;48.266;7.402;2023-03-14T03:08:41;97717.22;;;11.08;87.47
43147;BME280;28752;48.266;7.402;2023-03-14T03:11:07;97713.59;;;11.09;86.58
43147;BME280;28752;48.266;7.402;2023-03-14T03:13:33;97708.28;;;11.09;86.49
43147;BME280;28752;48.266;7.402;2023-03-14T03:15:58;97715.91;;;10.97;86.66
43147;BME280;28752;48.266;7.402;2023-03-14T03:18:24;97702.88;;;10.96;86.05
43147;BME280;28752;48.266;7.402;2023-03-14T03:20:49;97695.56;;;10.98;85.81
43147;BME280;28752;48.266;7.402;2023-03-14T03:23:15;97709.84;;;11.03;85.48
43147;BME280;28752;48.266;7.402;2023-03-14T03:25:40;97701.81;;;10.90;85.71
43147;BME280;28752;48.266;7.402;2023-03-14T03:28:05;97664.06;;;10.81;85.55
43147;BME280;28752;48.266;7.402;2023-03-14T03:30:36;97682.63;;;10.88;85.64
43147;BME280;28752;48.266;7.402;2023-03-14T03:33:02;97674.00;;;10.79;85.89
43147;BME280;28752;48.266;7.402;2023-03-14T03:35:27;97666.94;;;10.87;85.33
43147;BME280;28752;48.266;7.402;2023-03-14T03:37:53;97668.31;;;10.82;85.10
43147;BME280;28752;48.266;7.402;2023-03-14T03:40:18;97669.22;;;10.68;85.65
43147;BME280;28752;48.266;7.402;2023-03-14T03:42:44;97669.16;;;10.83;85.27
43147;BME280;28752;48.266;7.402;2023-03-14T03:45:09;97660.53;;;10.74;85.33
43147;BME280;28752;48.266;7.402;2023-03-14T03:47:35;97657.13;;;10.80;85.09
43147;BME280;28752;48.266;7.402;2023-03-14T03:50:00;97666.91;;;10.80;84.90
43147;BME280;28752;48.266;7.402;2023-03-14T03:52:25;97660.91;;;10.71;85.39
43147;BME280;28752;48.266;7.402;2023-03-14T03:54:51;97665.22;;;10.72;85.41
43147;BME280;28752;48.266;7.402;2023-03-14T03:57:16;97673.78;;;10.74;84.71
43147;BME280;28752;48.266;7.402;2023-03-14T03:59:41;97674.00;;;10.58;85.22
43147;BME280;28752;48.266;7.402;2023-03-14T04:02:07;97677.56;;;10.65;85.28
43147;BME280;28752;48.266;7.402;2023-03-14T04:04:33;97670.38;;;10.59;85.54
43147;BME280;28752;48.266;7.402;2023-03-14T04:06:58;97663.13;;;10.68;85.20
43147;BME280;28752;48.266;7.402;2023-03-14T04:09:23;97644.91;;;10.58;86.03
43147;BME280;28752;48.266;7.402;2023-03-14T04:11:49;97648.81;;;10.62;85.99
43147;BME280;28752;48.266;7.402;2023-03-14T04:14:14;97650.47;;;10.63;85.32
43147;BME280;28752;48.266;7.402;2023-03-14T04:16:40;97647.56;;;10.58;85.92
43147;BME280;28752;48.266;7.402;2023-03-14T04:19:05;97642.91;;;10.60;86.07
43147;BME280;28752;48.266;7.402;2023-03-14T04:21:30;97629.97;;;10.50;86.59
43147;BME280;28752;48.266;7.402;2023-03-14T04:23:56;97624.50;;;10.52;86.25
43147;BME280;28752;48.266;7.402;2023-03-14T04:26:21;97629.78;;;10.52;86.43
43147;BME280;28752;48.266;7.402;2023-03-14T04:28:47;97621.41;;;10.48;86.31
43147;BME280;28752;48.266;7.402;2023-03-14T04:31:17;97614.22;;;10.63;85.35
43147;BME280;28752;48.266;7.402;2023-03-14T04:33:44;97600.28;;;10.55;85.38
43147;BME280;28752;48.266;7.402;2023-03-14T04:36:10;97617.44;;;10.59;84.96
43147;BME280;28752;48.266;7.402;2023-03-14T04:38:36;97605.59;;;10.55;84.59
43147;BME280;28752;48.266;7.402;2023-03-14T04:41:02;97575.75;;;10.39;84.16
43147;BME280;28752;48.266;7.402;2023-03-14T04:43:27;97590.22;;;10.65;84.20
43147;BME280;28752;48.266;7.402;2023-03-14T04:45:53;97588.25;;;10.52;84.07
43147;BME280;28752;48.266;7.402;2023-03-14T04:48:19;97596.47;;;10.57;84.61
43147;BME280;28752;48.266;7.402;2023-03-14T04:50:46;97579.97;;;10.55;84.56
43147;BME280;28752;48.266;7.402;2023-03-14T04:53:12;97590.59;;;10.62;84.09
43147;BME280;28752;48.266;7.402;2023-03-14T04:55:37;97583.22;;;10.57;84.16
43147;BME280;28752;48.266;7.402;2023-03-14T04:58:03;97597.16;;;10.66;84.35
43147;BME280;28752;48.266;7.402;2023-03-14T05:00:28;97593.72;;;10.72;83.23
43147;BME280;28752;48.266;7.402;2023-03-14T05:02:54;97579.25;;;10.68;83.53
43147;BME280;28752;48.266;7.402;2023-03-14T05:05:19;97583.59;;;10.82;82.94
43147;BME280;28752;48.266;7.402;2023-03-14T05:07:45;97549.53;;;10.73;82.35
43147;BME280;28752;48.266;7.402;2023-03-14T05:10:10;97568.66;;;10.68;83.29
43147;BME280;28752;48.266;7.402;2023-03-14T05:12:36;97559.75;;;10.76;82.82
43147;BME280;28752;48.266;7.402;2023-03-14T05:15:03;97564.38;;;10.95;81.87
43147;BME280;28752;48.266;7.402;2023-03-14T05:17:30;97549.94;;;10.98;81.30
43147;BME280;28752;48.266;7.402;2023-03-14T05:19:57;97552.59;;;11.05;80.79
43147;BME280;28752;48.266;7.402;2023-03-14T05:22:22;97575.38;;;10.99;80.85
43147;BME280;28752;48.266;7.402;2023-03-14T05:24:47;97562.31;;;10.91;81.45
43147;BME280;28752;48.266;7.402;2023-03-14T05:27:13;97563.09;;;10.91;81.75
43147;BME280;28752;48.266;7.402;2023-03-14T05:29:38;97546.81;;;10.88;81.30
43147;BME280;28752;48.266;7.402;2023-03-14T05:32:03;97543.19;;;10.95;81.23
43147;BME280;28752;48.266;7.402;2023-03-14T05:34:29;97548.47;;;10.95;80.50
43147;BME280;28752;48.266;7.402;2023-03-14T05:36:54;97541.59;;;11.01;80.19
43147;BME280;28752;48.266;7.402;2023-03-14T05:39:21;97533.00;;;10.99;80.55
43147;BME280;28752;48.266;7.402;2023-03-14T05:41:46;97530.03;;;11.15;79.73
43147;BME280;28752;48.266;7.402;2023-03-14T05:44:12;97518.44;;;11.16;79.72
43147;BME280;28752;48.266;7.402;2023-03-14T05:46:37;97535.97;;;11.17;79.40
43147;BME280;28752;48.266;7.402;2023-03-14T05:49:03;97530.59;;;11.04;80.50
43147;BME280;28752;48.266;7.402;2023-03-14T05:51:28;97528.97;;;11.03;80.03
43147;BME280;28752;48.266;7.402;2023-03-14T05:53:53;97524.91;;;11.07;80.73
43147;BME280;28752;48.266;7.402;2023-03-14T05:56:19;97532.63;;;11.02;80.91
43147;BME280;28752;48.266;7.402;2023-03-14T05:58:44;97532.41;;;11.03;80.89
43147;BME280;28752;48.266;7.402;2023-03-14T06:01:09;97532.41;;;10.97;80.83
43147;BME280;28752;48.266;7.402;2023-03-14T06:03:35;97537.53;;;11.05;80.25
43147;BME280;28752;48.266;7.402;2023-03-14T06:06:01;97535.75;;;11.12;80.01
43147;BME280;28752;48.266;7.402;2023-03-14T06:08:26;97533.53;;;11.16;79.42
43147;BME280;28752;48.266;7.402;2023-03-14T06:10:52;97534.38;;;11.23;78.77
43147;BME280;28752;48.266;7.402;2023-03-14T06:13:18;97541.72;;;11.28;77.19
43147;BME280;28752;48.266;7.402;2023-03-14T06:15:44;97538.72;;;11.37;76.25
43147;BME280;28752;48.266;7.402;2023-03-14T06:18:09;97526.69;;;11.42;76.62
43147;BME280;28752;48.266;7.402;2023-03-14T06:20:38;97512.63;;;11.34;74.92
43147;BME280;28752;48.266;7.402;2023-03-14T06:23:05;97513.50;;;11.48;74.78
43147;BME280;28752;48.266;7.402;2023-03-14T06:25:30;97533.25;;;11.46;75.17
43147;BME280;28752;48.266;7.402;2023-03-14T06:27:55;97530.84;;;11.58;75.24
43147;BME280;28752;48.266;7.402;2023-03-14T06:30:21;97527.53;;;11.49;75.20
43147;BME280;28752;48.266;7.402;2023-03-14T06:32:46;97538.59;;;11.66;75.20
43147;BME280;28752;48.266;7.402;2023-03-14T06:35:11;97537.59;;;11.67;75.06
43147;BME280;28752;48.266;7.402;2023-03-14T06:37:37;97526.78;;;11.62;74.84
43147;BME280;28752;48.266;7.402;2023-03-14T06:40:03;97528.44;;;11.69;74.39
43147;BME280;28752;48.266;7.402;2023-03-14T06:42:30;97533.31;;;11.66;73.94
43147;BME280;28752;48.266;7.402;2023-03-14T06:44:55;97540.63;;;11.57;75.20
43147;BME280;28752;48.266;7.402;2023-03-14T06:47:20;97518.97;;;11.47;75.05
43147;BME280;28752;48.266;7.402;2023-03-14T06:49:46;97517.13;;;11.41;74.13
43147;BME280;28752;48.266;7.402;2023-03-14T06:52:11;97526.09;;;11.46;73.82
43147;BME280;28752;48.266;7.402;2023-03-14T06:54:37;97514.69;;;11.39;74.84
43147;BME280;28752;48.266;7.402;2023-03-14T06:57:02;97534.94;;;11.60;73.83
43147;BME280;28752;48.266;7.402;2023-03-14T06:59:27;97530.06;;;11.70;73.90
43147;BME280;28752;48.266;7.402;2023-03-14T07:01:53;97528.75;;;11.46;73.96
43147;BME280;28752;48.266;7.402;2023-03-14T07:04:18;97542.44;;;11.56;74.36
43147;BME280;28752;48.266;7.402;2023-03-14T07:06:43;97541.06;;;11.67;73.77
43147;BME280;28752;48.266;7.402;2023-03-14T07:09:10;97538.22;;;11.69;74.01
43147;BME280;28752;48.266;7.402;2023-03-14T07:11:36;97543.31;;;11.70;73.88
43147;BME280;28752;48.266;7.402;2023-03-14T07:14:02;97540.47;;;11.72;73.73
43147;BME280;28752;48.266;7.402;2023-03-14T07:16:27;97550.31;;;11.85;73.93
43147;BME280;28752;48.266;7.402;2023-03-14T07:18:56;97543.94;;;11.72;74.61
43147;BME280;28752;48.266;7.402;2023-03-14T07:21:22;97550.47;;;11.77;74.47
43147;BME280;28752;48.266;7.402;2023-03-14T07:23:47;97551.31;;;11.84;74.17
43147;BME280;28752;48.266;7.402;2023-03-14T07:26:12;97562.59;;;11.93;73.37
43147;BME280;28752;48.266;7.402;2023-03-14T07:28:38;97549.56;;;12.04;72.64
43147;BME280;28752;48.266;7.402;2023-03-14T07:31:03;97564.44;;;12.05;72.61
43147;BME280;28752;48.266;7.402;2023-03-14T07:33:29;97556.69;;;12.04;73.04
43147;BME280;28752;48.266;7.402;2023-03-14T07:35:54;97566.69;;;12.02;73.35
43147;BME280;28752;48.266;7.402;2023-03-14T07:38:19;97571.81;;;12.10;73.73
43147;BME280;28752;48.266;7.402;2023-03-14T07:40:45;97565.50;;;12.18;72.82
43147;BME280;28752;48.266;7.402;2023-03-14T07:43:10;97572.22;;;12.20;73.30
43147;BME280;28752;48.266;7.402;2023-03-14T07:45:35;97556.72;;;12.17;73.29
43147;BME280;28752;48.266;7.402;2023-03-14T07:48:01;97566.34;;;12.32;72.85
43147;BME280;28752;48.266;7.402;2023-03-14T07:50:27;97573.88;;;12.41;72.86
43147;BME280;28752;48.266;7.402;2023-03-14T07:52:54;97557.75;;;12.16;72.80
43147;BME280;28752;48.266;7.402;2023-03-14T07:55:19;97563.88;;;12.37;72.54
43147;BME280;28752;48.266;7.402;2023-03-14T07:57:45;97572.44;;;12.39;72.12
43147;BME280;28752;48.266;7.402;2023-03-14T08:00:11;97576.56;;;12.41;72.11
43147;BME280;28752;48.266;7.402;2023-03-14T08:02:36;97574.91;;;12.54;71.29
43147;BME280;28752;48.266;7.402;2023-03-14T08:05:03;97575.50;;;12.36;70.90
43147;BME280;28752;48.266;7.402;2023-03-14T08:07:28;97578.38;;;12.34;71.54
43147;BME280;28752;48.266;7.402;2023-03-14T08:09:54;97569.81;;;12.25;70.95
43147;BME280;28752;48.266;7.402;2023-03-14T08:12:19;97578.56;;;12.19;70.64
43147;BME280;28752;48.266;7.402;2023-03-14T08:14:44;97579.78;;;12.23;70.72
43147;BME280;28752;48.266;7.402;2023-03-14T08:17:10;97578.38;;;12.48;69.97
43147;BME280;28752;48.266;7.402;2023-03-14T08:19:35;97558.00;;;12.48;69.23
43147;BME280;28752;48.266;7.402;2023-03-14T08:22:00;97585.75;;;12.79;68.73
43147;BME280;28752;48.266;7.402;2023-03-14T08:24:26;97581.47;;;12.85;67.83
43147;BME280;28752;48.266;7.402;2023-03-14T08:26:52;97588.63;;;12.91;67.41
43147;BME280;28752;48.266;7.402;2023-03-14T08:29:17;97592.06;;;13.05;66.17
43147;BME280;28752;48.266;7.402;2023-03-14T08:31:42;97588.00;;;12.95;66.98
43147;BME280;28752;48.266;7.402;2023-03-14T08:34:07;97577.72;;;13.26;66.27
43147;BME280;28752;48.266;7.402;2023-03-14T08:36:33;97585.06;;;13.24;65.76
43147;BME280;28752;48.266;7.402;2023-03-14T08:38:59;97583.63;;;13.41;65.74
43147;BME280;28752;48.266;7.402;2023-03-14T08:41:24;97580.59;;;13.90;65.88
43147;BME280;28752;48.266;7.402;2023-03-14T08:43:49;97580.72;;;14.01;64.36
43147;BME280;28752;48.266;7.402;2023-03-14T08:46:15;97592.88;;;13.84;63.69
43147;BME280;28752;48.266;7.402;2023-03-14T08:48:40;97592.25;;;13.89;63.57
43147;BME280;28752;48.266;7.402;2023-03-14T08:51:07;97595.31;;;13.85;63.89
43147;BME280;28752;48.266;7.402;2023-03-14T08:53:32;97591.97;;;13.58;62.96
43147;BME280;28752;48.266;7.402;2023-03-14T08:55:58;97583.19;;;13.51;64.08
43147;BME280;28752;48.266;7.402;2023-03-14T08:58:23;97594.22;;;13.55;64.28
43147;BME280;28752;48.266;7.402;2023-03-14T09:00:49;97605.41;;;13.70;65.11
43147;BME280;28752;48.266;7.402;2023-03-14T09:03:15;97615.47;;;13.61;65.25
43147;BME280;28752;48.266;7.402;2023-03-14T09:05:40;97607.28;;;13.63;65.35
43147;BME280;28752;48.266;7.402;2023-03-14T09:08:05;97621.38;;;13.63;65.93
43147;BME280;28752;48.266;7.402;2023-03-14T09:10:31;97608.13;;;13.57;66.88
43147;BME280;28752;48.266;7.402;2023-03-14T09:12:56;97616.31;;;13.55;66.81
43147;BME280;28752;48.266;7.402;2023-03-14T09:15:23;97632.84;;;13.57;67.28
43147;BME280;28752;48.266;7.402;2023-03-14T09:17:48;97630.22;;;13.50;68.32
43147;BME280;28752;48.266;7.402;2023-03-14T09:20:14;97619.41;;;13.32;69.56
43147;BME280;28752;48.266;7.402;2023-03-14T09:22:39;97634.34;;;13.40;69.79
43147;BME280;28752;48.266;7.402;2023-03-14T09:25:05;97646.59;;;13.21;71.30
43147;BME280;28752;48.266;7.402;2023-03-14T09:27:31;97645.41;;;13.17;71.32
43147;BME280;28752;48.266;7.402;2023-03-14T09:29:56;97646.63;;;13.27;71.71
43147;BME280;28752;48.266;7.402;2023-03-14T09:32:22;97649.09;;;12.95;72.63
43147;BME280;28752;48.266;7.402;2023-03-14T09:34:47;97652.56;;;13.03;72.46
43147;BME280;28752;48.266;7.402;2023-03-14T09:37:12;97668.91;;;12.86;74.02
43147;BME280;28752;48.266;7.402;2023-03-14T09:39:38;97667.06;;;12.67;74.93
43147;BME280;28752;48.266;7.402;2023-03-14T09:42:06;97674.41;;;12.71;76.33
43147;BME280;28752;48.266;7.402;2023-03-14T09:44:36;97672.34;;;12.67;75.69
43147;BME280;28752;48.266;7.402;2023-03-14T09:47:06;97661.34;;;12.83;76.38
43147;BME280;28752;48.266;7.402;2023-03-14T09:49:37;97674.81;;;12.88;75.58
43147;BME280;28752;48.266;7.402;2023-03-14T09:52:26;97683.22;;;13.12;75.58
43147;BME280;28752;48.266;7.402;2023-03-14T09:55:05;97681.34;;;13.19;75.54
43147;BME280;28752;48.266;7.402;2023-03-14T09:57:34;97677.91;;;13.12;75.90
43147;BME280;28752;48.266;7.402;2023-03-14T10:00:05;97677.28;;;13.23;76.05
43147;BME280;28752;48.266;7.402;2023-03-14T10:02:40;97682.59;;;12.90;76.86
43147;BME280;28752;48.266;7.402;2023-03-14T10:05:21;97684.44;;;13.03;76.87
43147;BME280;28752;48.266;7.402;2023-03-14T10:07:47;97679.53;;;12.86;77.58
43147;BME280;28752;48.266;7.402;2023-03-14T10:10:19;97699.34;;;12.97;77.81
43147;BME280;28752;48.266;7.402;2023-03-14T10:12:55;97694.88;;;13.11;77.09
43147;BME280;28752;48.266;7.402;2023-03-14T10:15:27;97707.13;;;12.98;77.66
43147;BME280;28752;48.266;7.402;2023-03-14T10:17:54;97700.78;;;13.00;77.23
43147;BME280;28752;48.266;7.402;2023-03-14T10:23:29;97702.88;;;13.38;76.07
43147;BME280;28752;48.266;7.402;2023-03-14T10:26:06;97684.84;;;13.53;74.51
43147;BME280;28752;48.266;7.402;2023-03-14T10:28:41;97704.91;;;13.42;74.94
43147;BME280;28752;48.266;7.402;2023-03-14T10:31:08;97729.44;;;13.44;74.97
43147;BME280;28752;48.266;7.402;2023-03-14T10:33:34;97735.94;;;13.08;73.60
43147;BME280;28752;48.266;7.402;2023-03-14T10:38:33;97784.38;;;12.97;74.19
43147;BME280;28752;48.266;7.402;2023-03-14T10:41:00;97830.06;;;12.24;71.36
43147;BME280;28752;48.266;7.402;2023-03-14T10:43:34;97826.31;;;12.12;68.56
43147;BME280;28752;48.266;7.402;2023-03-14T10:48:33;97826.63;;;12.37;66.40
43147;BME280;28752;48.266;7.402;2023-03-14T10:53:25;97854.75;;;11.74;65.09
43147;BME280;28752;48.266;7.402;2023-03-14T10:55:51;97870.53;;;12.04;67.42
43147;BME280;28752;48.266;7.402;2023-03-14T11:01:01;97881.28;;;12.24;62.15
43147;BME280;28752;48.266;7.402;2023-03-14T11:03:30;97861.19;;;12.43;61.46
43147;BME280;28752;48.266;7.402;2023-03-14T11:05:58;97879.38;;;12.47;59.69
43147;BME280;28752;48.266;7.402;2023-03-14T11:08:31;97876.63;;;12.33;60.18
43147;BME280;28752;48.266;7.402;2023-03-14T11:11:20;97897.28;;;12.73;62.49
43147;BME280;28752;48.266;7.402;2023-03-14T11:22:27;97935.34;;;11.95;61.97
43147;BME280;28752;48.266;7.402;2023-03-14T11:33:15;97985.97;;;12.78;57.81
43147;BME280;28752;48.266;7.402;2023-03-14T11:35:54;97997.38;;;13.14;55.62
43147;BME280;28752;48.266;7.402;2023-03-14T11:38:36;98012.94;;;13.17;55.66
43147;BME280;28752;48.266;7.402;2023-03-14T11:41:04;98031.34;;;12.55;49.76
43147;BME280;28752;48.266;7.402;2023-03-14T11:43:35;98034.94;;;12.19;50.09
43147;BME280;28752;48.266;7.402;2023-03-14T11:46:11;98064.63;;;12.08;50.10
43147;BME280;28752;48.266;7.402;2023-03-14T11:48:42;98059.50;;;11.70;50.13
43147;BME280;28752;48.266;7.402;2023-03-14T11:51:20;98044.78;;;11.67;50.19
43147;BME280;28752;48.266;7.402;2023-03-14T11:59:27;98071.53;;;12.24;51.27
43147;BME280;28752;48.266;7.402;2023-03-14T12:01:59;98072.25;;;12.61;53.31
43147;BME280;28752;48.266;7.402;2023-03-14T12:07:19;98110.00;;;12.35;51.90
43147;BME280;28752;48.266;7.402;2023-03-14T12:09:47;98109.06;;;12.21;53.10
43147;BME280;28752;48.266;7.402;2023-03-14T12:12:18;98123.50;;;11.67;49.08
43147;BME280;28752;48.266;7.402;2023-03-14T12:14:57;98144.13;;;11.86;49.16
43147;BME280;28752;48.266;7.402;2023-03-14T12:17:34;98138.13;;;11.63;48.83
43147;BME280;28752;48.266;7.402;2023-03-14T12:20:17;98180.81;;;11.53;50.57
43147;BME280;28752;48.266;7.402;2023-03-14T12:30:34;98196.34;;;12.16;49.77
43147;BME280;28752;48.266;7.402;2023-03-14T12:35:47;98198.50;;;12.42;47.97
43147;BME280;28752;48.266;7.402;2023-03-14T12:38:32;98223.53;;;12.54;48.58
43147;BME280;28752;48.266;7.402;2023-03-14T12:41:18;98234.19;;;12.39;47.97
43147;BME280;28752;48.266;7.402;2023-03-14T12:43:46;98247.50;;;11.95;49.66
43147;BME280;28752;48.266;7.402;2023-03-14T12:57:18;98302.41;;;12.09;47.31
43147;BME280;28752;48.266;7.402;2023-03-14T12:59:58;98310.44;;;12.31;48.26
43147;BME280;28752;48.266;7.402;2023-03-14T13:05:25;98330.66;;;12.02;46.21
43147;BME280;28752;48.266;7.402;2023-03-14T13:10:38;98345.28;;;11.98;45.40
43147;BME280;28752;48.266;7.402;2023-03-14T13:18:13;98389.59;;;11.74;46.17
43147;BME280;28752;48.266;7.402;2023-03-14T13:20:53;98375.16;;;11.91;46.31
43147;BME280;28752;48.266;7.402;2023-03-14T13:23:39;98387.38;;;11.78;47.23
43147;BME280;28752;48.266;7.402;2023-03-14T13:26:13;98383.16;;;11.68;46.56
43147;BME280;28752;48.266;7.402;2023-03-14T13:28:41;98393.91;;;11.90;46.49
43147;BME280;28752;48.266;7.402;2023-03-14T13:31:25;98387.34;;;11.86;46.33
43147;BME280;28752;48.266;7.402;2023-03-14T13:34:01;98384.19;;;11.82;47.28
43147;BME280;28752;48.266;7.402;2023-03-14T13:36:27;98401.34;;;11.95;46.22
43147;BME280;28752;48.266;7.402;2023-03-14T13:38:58;98407.31;;;11.73;46.63
43147;BME280;28752;48.266;7.402;2023-03-14T13:41:24;98403.78;;;11.81;45.61
43147;BME280;28752;48.266;7.402;2023-03-14T13:43:51;98401.41;;;11.86;45.74
43147;BME280;28752;48.266;7.402;2023-03-14T13:46:20;98418.84;;;12.04;46.21
43147;BME280;28752;48.266;7.402;2023-03-14T13:48:57;98411.50;;;11.68;46.01
43147;BME280;28752;48.266;7.402;2023-03-14T13:51:23;98419.09;;;11.94;46.59
43147;BME280;28752;48.266;7.402;2023-03-14T13:53:54;98396.72;;;11.97;46.25
43147;BME280;28752;48.266;7.402;2023-03-14T13:56:22;98413.19;;;12.07;45.90
43147;BME280;28752;48.266;7.402;2023-03-14T13:58:48;98426.59;;;11.90;46.04
43147;BME280;28752;48.266;7.402;2023-03-14T14:01:35;98425.94;;;12.26;46.13
43147;BME280;28752;48.266;7.402;2023-03-14T14:04:08;98427.97;;;12.39;45.83
43147;BME280;28752;48.266;7.402;2023-03-14T14:06:36;98429.72;;;12.47;45.70
43147;BME280;28752;48.266;7.402;2023-03-14T14:09:12;98420.53;;;12.20;44.65
43147;BME280;28752;48.266;7.402;2023-03-14T14:11:43;98429.88;;;12.31;45.48
43147;BME280;28752;48.266;7.402;2023-03-14T14:14:16;98444.09;;;12.00;45.45
43147;BME280;28752;48.266;7.402;2023-03-14T14:16:44;98449.44;;;12.15;45.61